LEAM/LEI METAR and TAF weather

Enter ICAO airport designator
Station Type Date Time Source
LEAM METAR 2018/12/17 03:00 UTC NOAA

LEAM 170300Z AUTO 04005KT 010V080 9999 NCD 14/10 Q1025


Station Type Date Time Source
LEAM Decoded METAR 2018/12/17 03:00 UTC NOAA

Almeria / Aeropuerto, Spain (LEAM) 36-51N 002-23W 21M
Dec 16, 2018 - 10:00 PM EST / 2018.12.17 0300 UTC
Wind: from the NE (040 degrees) at 6 MPH (5 KT) (direction variable):0
Visibility: greater than 7 mile(s):0
Temperature: 57 F (14 C)
Dew Point: 50 F (10 C)
Relative Humidity: 76%
Pressure (altimeter): 30.27 in. Hg (1025 hPa)
ob: LEAM 170300Z AUTO 04005KT 010V080 9999 NCD 14/10 Q1025
cycle: 3

Station Type Date Time Source
LEAM TAF 2018/12/17 03:30 UTC NOAA

TAF LEAM 170200Z 1703/1803 02008KT CAVOK TX18/1713Z TN10/1707Z


Example: see airport list